createdAt,value
2022-08-23T00:01:34.735Z,16.30
2022-08-23T00:04:09.023Z,16.40
2022-08-23T00:06:38.505Z,16.30
2022-08-23T00:09:06.045Z,16.30
2022-08-23T00:11:38.481Z,16.30
2022-08-23T00:14:22.885Z,16.30
2022-08-23T00:16:50.152Z,16.30
2022-08-23T00:19:21.423Z,16.30
2022-08-23T00:21:49.267Z,16.20
2022-08-23T00:24:17.406Z,16.20
2022-08-23T00:26:53.266Z,16.30
2022-08-23T00:29:22.334Z,16.30
2022-08-23T00:31:51.748Z,16.40
2022-08-23T00:34:18.494Z,16.40
2022-08-23T00:36:45.152Z,16.30
2022-08-23T00:39:12.491Z,16.40
2022-08-23T00:41:39.835Z,16.40
2022-08-23T00:44:32.637Z,16.30
2022-08-23T00:47:25.378Z,16.30
2022-08-23T00:49:57.997Z,16.30
2022-08-23T00:52:52.257Z,16.30
2022-08-23T00:55:21.109Z,16.30
2022-08-23T00:57:48.013Z,16.10
2022-08-23T01:00:15.209Z,16.00
2022-08-23T01:02:43.564Z,16.00
2022-08-23T01:05:11.852Z,15.90
2022-08-23T01:07:38.992Z,15.90
2022-08-23T01:10:14.965Z,15.80
2022-08-23T01:12:56.117Z,15.80
2022-08-23T01:15:32.657Z,15.70
2022-08-23T01:18:05.668Z,15.60
2022-08-23T01:20:43.455Z,15.50
2022-08-23T01:23:33.311Z,15.50
2022-08-23T01:26:01.550Z,15.70
2022-08-23T01:28:28.310Z,15.70
2022-08-23T01:30:55.095Z,15.60
2022-08-23T01:33:21.962Z,15.60
2022-08-23T01:35:53.691Z,15.60
2022-08-23T01:38:22.437Z,15.70
2022-08-23T01:40:50.458Z,15.80
2022-08-23T01:43:21.353Z,15.70
2022-08-23T01:45:50.166Z,15.70
2022-08-23T01:48:17.775Z,15.50
2022-08-23T01:50:45.234Z,15.40
2022-08-23T01:53:12.252Z,15.30
2022-08-23T01:55:40.880Z,15.50
2022-08-23T01:58:08.366Z,15.40
2022-08-23T02:00:39.426Z,15.40
2022-08-23T02:03:08.057Z,15.40
2022-08-23T02:05:37.266Z,15.30
2022-08-23T02:08:24.836Z,15.30
2022-08-23T02:10:51.566Z,15.20
2022-08-23T02:13:18.362Z,15.20
2022-08-23T02:15:46.972Z,15.20
2022-08-23T02:18:14.197Z,15.20
2022-08-23T02:20:50.878Z,15.20
2022-08-23T02:23:18.717Z,15.20
2022-08-23T02:25:45.595Z,15.20
2022-08-23T02:28:12.433Z,15.20
2022-08-23T02:30:40.105Z,15.10
2022-08-23T02:33:06.994Z,15.00
2022-08-23T02:35:34.032Z,14.90
2022-08-23T02:38:06.413Z,14.80
2022-08-23T02:40:33.772Z,14.80
2022-08-23T02:43:00.570Z,14.80
2022-08-23T02:45:28.800Z,14.90
2022-08-23T02:47:57.222Z,14.90
2022-08-23T02:50:24.238Z,14.90
2022-08-23T02:52:51.227Z,15.00
2022-08-23T02:55:18.664Z,14.80
2022-08-23T02:57:45.716Z,14.70
2022-08-23T03:00:14.649Z,14.60
2022-08-23T03:02:41.823Z,14.50
2022-08-23T03:05:09.637Z,14.50
2022-08-23T03:07:36.706Z,14.40
2022-08-23T03:10:05.171Z,14.50
2022-08-23T03:12:32.577Z,14.50
2022-08-23T03:14:59.701Z,14.50
2022-08-23T03:17:26.517Z,14.60
2022-08-23T03:19:53.269Z,14.60
2022-08-23T03:22:20.886Z,14.60
2022-08-23T03:24:47.673Z,14.50
2022-08-23T03:27:14.769Z,14.50
2022-08-23T03:29:41.830Z,14.40
2022-08-23T03:32:08.577Z,14.40
2022-08-23T03:34:37.139Z,14.40
2022-08-23T03:37:04.133Z,14.30
2022-08-23T03:39:30.979Z,14.20
2022-08-23T03:41:57.848Z,14.20
2022-08-23T03:44:24.630Z,14.10
2022-08-23T03:46:51.373Z,14.10
2022-08-23T03:49:18.052Z,14.20
2022-08-23T03:51:44.777Z,14.20
2022-08-23T03:54:11.566Z,14.20
2022-08-23T03:56:49.313Z,14.20
2022-08-23T03:59:16.027Z,14.20
2022-08-23T04:01:44.266Z,14.20
2022-08-23T04:04:11.134Z,14.20
2022-08-23T04:06:38.430Z,14.30
2022-08-23T04:09:05.286Z,14.30
2022-08-23T04:11:32.473Z,14.30
2022-08-23T04:13:59.278Z,14.20
2022-08-23T04:16:26.124Z,14.20
2022-08-23T04:18:52.814Z,14.10
2022-08-23T04:21:22.486Z,13.90
2022-08-23T04:23:50.127Z,13.80
2022-08-23T04:26:16.799Z,13.70
2022-08-23T04:28:43.476Z,13.70
2022-08-23T04:31:10.592Z,13.50
2022-08-23T04:33:40.310Z,13.50
2022-08-23T04:36:07.848Z,13.50
2022-08-23T04:38:34.608Z,13.40
2022-08-23T04:41:20.193Z,13.30
2022-08-23T04:43:47.322Z,13.30
2022-08-23T04:46:15.469Z,13.20
2022-08-23T04:48:43.257Z,13.30
2022-08-23T04:51:10.518Z,13.20
2022-08-23T04:53:37.522Z,13.10
2022-08-23T04:56:05.615Z,13.10
2022-08-23T04:58:33.563Z,13.10
2022-08-23T05:01:02.031Z,13.10
2022-08-23T05:03:29.711Z,13.20
2022-08-23T05:05:58.086Z,13.30
2022-08-23T05:08:25.442Z,13.40
2022-08-23T05:10:52.411Z,13.50
2022-08-23T05:13:19.168Z,13.60
2022-08-23T05:15:46.070Z,13.80
2022-08-23T05:18:12.937Z,13.80
2022-08-23T05:20:39.665Z,13.90
2022-08-23T05:23:06.381Z,14.00
2022-08-23T05:25:52.965Z,14.20
2022-08-23T05:28:26.260Z,14.20
2022-08-23T05:31:00.509Z,14.30
2022-08-23T05:33:29.860Z,14.50
2022-08-23T05:35:56.665Z,14.70
2022-08-23T05:38:24.612Z,14.90
2022-08-23T05:40:57.262Z,15.00
2022-08-23T05:43:26.673Z,15.20
2022-08-23T05:46:11.215Z,15.10
2022-08-23T05:48:41.709Z,15.30
2022-08-23T05:51:27.920Z,15.40
2022-08-23T05:53:58.746Z,15.60
2022-08-23T05:56:32.840Z,15.80
2022-08-23T05:59:04.036Z,15.90
2022-08-23T06:01:30.931Z,16.00
2022-08-23T06:04:04.114Z,16.00
2022-08-23T06:06:36.407Z,16.20
2022-08-23T06:09:06.469Z,16.30
2022-08-23T06:11:33.727Z,16.20
2022-08-23T06:14:03.155Z,16.30
2022-08-23T06:16:35.709Z,16.60
2022-08-23T06:19:03.374Z,16.40
2022-08-23T06:21:31.118Z,16.80
2022-08-23T06:23:58.267Z,17.20
2022-08-23T06:26:33.954Z,17.40
2022-08-23T06:29:06.381Z,17.50
2022-08-23T06:31:45.634Z,17.60
2022-08-23T06:34:19.809Z,17.70
2022-08-23T06:36:55.192Z,17.80
2022-08-23T06:39:24.314Z,18.00
2022-08-23T06:41:51.697Z,18.00
2022-08-23T06:44:19.856Z,18.10
2022-08-23T06:46:48.658Z,18.30
2022-08-23T06:49:16.293Z,18.70
2022-08-23T06:51:45.513Z,19.10
2022-08-23T06:54:14.859Z,19.30
2022-08-23T06:56:45.085Z,19.40
2022-08-23T06:59:12.422Z,19.60
2022-08-23T07:01:57.475Z,19.70
2022-08-23T07:04:31.057Z,20.10
2022-08-23T07:06:58.842Z,20.50
2022-08-23T07:09:27.044Z,20.90
2022-08-23T07:11:54.043Z,21.10
2022-08-23T07:14:22.544Z,21.50
2022-08-23T07:16:52.582Z,20.90
2022-08-23T07:19:21.253Z,21.30
2022-08-23T07:21:48.918Z,21.60
2022-08-23T07:24:17.754Z,21.80
2022-08-23T07:26:45.972Z,22.10
2022-08-23T07:29:13.775Z,22.40
2022-08-23T07:31:44.043Z,22.50
2022-08-23T07:34:10.830Z,22.80
2022-08-23T07:36:39.552Z,22.60
2022-08-23T07:39:07.482Z,22.70
2022-08-23T07:41:35.672Z,22.50
2022-08-23T07:44:03.562Z,22.80
2022-08-23T07:46:31.955Z,23.20
2022-08-23T07:49:00.414Z,23.30
2022-08-23T07:51:29.091Z,23.40
2022-08-23T07:53:55.744Z,23.40
2022-08-23T07:56:22.735Z,23.60
2022-08-23T07:58:50.172Z,24.10
2022-08-23T08:01:19.748Z,23.90
2022-08-23T08:03:49.609Z,23.60
2022-08-23T08:06:22.386Z,23.10
2022-08-23T08:08:49.644Z,23.30
2022-08-23T08:11:18.938Z,23.30
2022-08-23T08:13:46.769Z,23.50
2022-08-23T08:16:34.839Z,23.30
2022-08-23T08:19:03.906Z,23.40
2022-08-23T08:21:30.618Z,23.60
2022-08-23T08:23:58.667Z,23.90
2022-08-23T08:26:27.223Z,24.10
2022-08-23T08:28:56.418Z,24.10
2022-08-23T08:31:25.171Z,24.20
2022-08-23T08:33:52.551Z,24.40
2022-08-23T08:36:37.876Z,24.80
2022-08-23T08:39:07.252Z,25.00
2022-08-23T08:42:04.001Z,25.10
2022-08-23T08:44:53.914Z,24.70
2022-08-23T08:47:37.658Z,24.40
2022-08-23T08:50:28.093Z,24.30
2022-08-23T08:53:01.713Z,24.40
2022-08-23T08:55:46.653Z,24.30
2022-08-23T08:58:21.501Z,24.80
2022-08-23T09:00:49.887Z,25.00
2022-08-23T09:03:21.217Z,25.00
2022-08-23T09:06:15.709Z,25.20
2022-08-23T09:09:13.138Z,25.50
2022-08-23T09:12:01.368Z,25.90
2022-08-23T09:14:59.260Z,26.00
2022-08-23T09:17:56.025Z,25.30
2022-08-23T09:20:28.882Z,25.00
2022-08-23T09:23:20.624Z,24.70
2022-08-23T09:25:54.668Z,24.90
2022-08-23T09:28:21.769Z,24.90
2022-08-23T09:30:59.130Z,24.90
2022-08-23T09:33:37.240Z,24.90
2022-08-23T09:36:06.436Z,24.80
2022-08-23T09:38:33.607Z,25.00
2022-08-23T09:41:00.786Z,25.20
2022-08-23T09:43:31.171Z,24.40
2022-08-23T09:46:01.134Z,24.20
2022-08-23T09:48:36.721Z,24.40
2022-08-23T09:51:14.915Z,24.30
2022-08-23T09:53:50.182Z,24.30
2022-08-23T09:56:26.435Z,24.40
2022-08-23T09:58:54.412Z,24.60
2022-08-23T10:01:25.871Z,25.00
2022-08-23T10:04:15.779Z,24.80
2022-08-23T10:06:46.125Z,24.80
2022-08-23T10:09:26.012Z,25.10
2022-08-23T10:11:53.641Z,24.70
2022-08-23T10:14:24.375Z,24.80
2022-08-23T10:17:12.482Z,24.80
2022-08-23T10:20:00.960Z,25.00
2022-08-23T10:22:36.590Z,24.70
2022-08-23T10:25:17.673Z,24.30
2022-08-23T10:28:05.947Z,24.60
2022-08-23T10:30:59.817Z,25.20
2022-08-23T10:33:54.977Z,25.60
2022-08-23T10:36:33.656Z,26.00
2022-08-23T10:39:10.966Z,26.00
2022-08-23T10:42:10.593Z,25.50
2022-08-23T10:45:22.593Z,25.40
2022-08-23T10:48:07.615Z,25.40
2022-08-23T10:50:44.628Z,25.70
2022-08-23T10:53:30.395Z,25.80
2022-08-23T10:56:06.230Z,25.60
2022-08-23T10:58:47.950Z,25.50
2022-08-23T11:01:37.591Z,25.60
2022-08-23T11:04:14.791Z,26.20
2022-08-23T11:06:46.029Z,26.20
2022-08-23T11:09:21.821Z,26.00
2022-08-23T11:12:14.418Z,26.30
2022-08-23T11:14:46.655Z,26.20
2022-08-23T11:17:40.923Z,26.30
2022-08-23T11:20:11.900Z,26.20
2022-08-23T11:22:56.889Z,25.70
2022-08-23T11:25:23.522Z,25.80
2022-08-23T11:27:50.238Z,26.10
2022-08-23T11:30:32.203Z,25.90
2022-08-23T11:33:16.204Z,26.20
2022-08-23T11:35:48.275Z,26.30
2022-08-23T11:38:22.577Z,26.10
2022-08-23T11:40:52.365Z,25.90
2022-08-23T11:43:28.277Z,26.20
2022-08-23T11:46:31.204Z,25.90
2022-08-23T11:49:16.885Z,26.40
2022-08-23T11:52:16.032Z,26.60
2022-08-23T11:55:20.207Z,25.70
2022-08-23T11:58:05.161Z,25.70
2022-08-23T12:00:50.599Z,26.20
2022-08-23T12:03:33.408Z,26.40
2022-08-23T12:06:03.263Z,26.70
2022-08-23T12:08:48.142Z,26.70
2022-08-23T12:11:17.356Z,27.00
2022-08-23T12:14:01.419Z,26.80
2022-08-23T12:16:33.356Z,27.30
2022-08-23T12:19:07.398Z,27.20
2022-08-23T12:21:39.338Z,26.90
2022-08-23T12:24:33.808Z,26.90
2022-08-23T12:27:26.722Z,26.90
2022-08-23T12:30:01.919Z,26.90
2022-08-23T12:32:53.246Z,27.10
2022-08-23T12:35:58.862Z,27.60
2022-08-23T12:38:36.717Z,27.70
2022-08-23T12:41:22.237Z,27.30
2022-08-23T12:43:59.370Z,27.20
2022-08-23T12:46:35.041Z,27.30
2022-08-23T12:49:03.062Z,27.40
2022-08-23T12:51:30.105Z,27.90
2022-08-23T12:53:56.952Z,28.00
2022-08-23T12:56:32.083Z,28.20
2022-08-23T12:59:04.809Z,27.80
2022-08-23T13:01:36.593Z,27.70
2022-08-23T13:04:13.191Z,27.20
2022-08-23T13:06:53.636Z,27.30
2022-08-23T13:09:28.660Z,27.30
2022-08-23T13:12:00.715Z,27.50
2022-08-23T13:14:43.488Z,27.20
2022-08-23T13:17:24.901Z,27.30
2022-08-23T13:20:02.578Z,27.10
2022-08-23T13:22:31.993Z,26.80
2022-08-23T13:27:58.045Z,26.90
2022-08-23T13:30:56.870Z,27.40
2022-08-23T13:33:23.659Z,27.60
2022-08-23T13:35:53.350Z,27.50
2022-08-23T13:38:25.304Z,27.20
2022-08-23T13:41:26.355Z,27.40
2022-08-23T13:43:53.275Z,27.50
2022-08-23T13:46:29.646Z,27.50
2022-08-23T13:49:16.423Z,27.60
2022-08-23T13:52:17.166Z,28.00
2022-08-23T13:54:45.794Z,27.90
2022-08-23T13:57:18.559Z,28.00
2022-08-23T13:59:52.126Z,28.20
2022-08-23T14:02:21.039Z,28.00
2022-08-23T14:04:48.006Z,28.20
2022-08-23T14:07:15.203Z,28.40
2022-08-23T14:09:42.478Z,28.20
2022-08-23T14:12:15.040Z,28.30
2022-08-23T14:14:42.727Z,28.40
2022-08-23T14:17:12.926Z,28.30
2022-08-23T14:20:32.915Z,28.00
2022-08-23T14:22:27.708Z,28.00
2022-08-23T14:24:54.556Z,28.00
2022-08-23T14:27:21.264Z,27.80
2022-08-23T14:29:48.025Z,27.90
2022-08-23T14:32:14.718Z,27.70
2022-08-23T14:34:41.688Z,27.50
2022-08-23T14:39:55.204Z,27.30
2022-08-23T14:42:22.847Z,27.70
2022-08-23T14:44:49.905Z,28.10
2022-08-23T14:47:18.026Z,28.30
2022-08-23T14:49:44.992Z,28.60
2022-08-23T14:52:14.715Z,28.30
2022-08-23T14:54:42.248Z,27.80
2022-08-23T14:57:09.216Z,28.10
2022-08-23T14:59:36.092Z,28.20
2022-08-23T15:02:04.073Z,27.70
2022-08-23T15:04:34.203Z,26.90
2022-08-23T15:07:19.087Z,26.70
2022-08-23T15:09:51.068Z,26.40
2022-08-23T15:15:12.320Z,26.40
2022-08-23T15:17:54.289Z,26.40
2022-08-23T15:20:25.052Z,26.20
2022-08-23T15:22:55.511Z,26.20
2022-08-23T15:25:24.187Z,26.40
2022-08-23T15:27:51.231Z,26.60
2022-08-23T15:30:18.835Z,26.60
2022-08-23T15:32:52.694Z,26.50
2022-08-23T15:35:24.881Z,26.30
2022-08-23T15:37:53.536Z,26.30
2022-08-23T15:40:20.856Z,26.10
2022-08-23T15:42:47.588Z,25.90
2022-08-23T15:45:14.566Z,25.80
2022-08-23T15:48:01.232Z,25.60
2022-08-23T15:50:32.549Z,25.50
2022-08-23T15:52:59.784Z,25.70
2022-08-23T15:55:32.221Z,25.70
2022-08-23T15:57:59.668Z,25.70
2022-08-23T16:00:27.673Z,25.80
2022-08-23T16:03:27.807Z,25.70
2022-08-23T16:05:44.891Z,25.60
2022-08-23T16:08:21.508Z,25.30
2022-08-23T16:10:48.465Z,25.20
2022-08-23T16:13:15.198Z,25.10
2022-08-23T16:15:41.974Z,25.20
2022-08-23T16:18:08.739Z,25.10
2022-08-23T16:20:35.402Z,25.10
2022-08-23T16:23:02.167Z,25.00
2022-08-23T16:25:28.917Z,25.00
2022-08-23T16:27:55.647Z,24.90
2022-08-23T16:30:22.983Z,24.80
2022-08-23T16:32:49.907Z,24.70
2022-08-23T16:35:17.761Z,24.70
2022-08-23T16:37:44.444Z,24.60
2022-08-23T16:40:12.292Z,24.50
2022-08-23T16:42:39.220Z,24.40
2022-08-23T16:45:06.999Z,24.40
2022-08-23T16:47:40.766Z,24.40
2022-08-23T16:50:09.345Z,24.30
2022-08-23T16:52:36.340Z,24.20
2022-08-23T16:55:06.017Z,24.10
2022-08-23T16:57:33.450Z,24.10
2022-08-23T17:00:00.152Z,24.00
2022-08-23T17:02:35.064Z,24.00
2022-08-23T17:05:02.326Z,23.90
2022-08-23T17:07:29.270Z,23.90
2022-08-23T17:09:56.044Z,23.80
2022-08-23T17:12:22.818Z,23.80
2022-08-23T17:14:51.297Z,23.70
2022-08-23T17:17:18.472Z,23.70
2022-08-23T17:19:45.163Z,23.60
2022-08-23T17:22:12.155Z,23.60
2022-08-23T17:24:38.953Z,23.50
2022-08-23T17:27:05.881Z,23.50
2022-08-23T17:29:37.360Z,23.50
2022-08-23T17:32:04.816Z,23.40
2022-08-23T17:34:31.576Z,23.40
2022-08-23T17:36:58.375Z,23.30
2022-08-23T17:39:28.913Z,23.20
2022-08-23T17:41:57.670Z,23.10
2022-08-23T17:44:25.022Z,23.00
2022-08-23T17:46:52.211Z,23.00
2022-08-23T17:49:19.198Z,22.90
2022-08-23T17:51:46.337Z,22.70
2022-08-23T17:54:15.990Z,22.50
2022-08-23T17:56:43.502Z,22.40
2022-08-23T17:59:18.435Z,22.40
2022-08-23T18:01:45.179Z,22.30
2022-08-23T18:04:11.930Z,22.10
2022-08-23T18:06:38.683Z,22.00
2022-08-23T18:09:07.132Z,22.00
2022-08-23T18:11:34.859Z,21.80
2022-08-23T18:14:01.878Z,21.80
2022-08-23T18:16:34.405Z,21.60
2022-08-23T18:19:03.326Z,21.50
2022-08-23T18:21:30.909Z,21.50
2022-08-23T18:23:58.824Z,21.40
2022-08-23T18:26:45.228Z,21.30
2022-08-23T18:29:14.367Z,21.20
2022-08-23T18:31:43.269Z,21.20
2022-08-23T18:34:11.672Z,21.20
2022-08-23T18:36:38.825Z,21.20
2022-08-23T18:39:08.168Z,21.20
2022-08-23T18:41:35.531Z,21.20
2022-08-23T18:44:05.732Z,21.20
2022-08-23T18:46:43.630Z,21.10
2022-08-23T18:49:11.497Z,21.10
2022-08-23T18:51:40.288Z,21.00
2022-08-23T18:54:08.208Z,20.90
2022-08-23T18:56:35.156Z,20.80
2022-08-23T18:59:02.616Z,20.80
2022-08-23T19:01:33.339Z,20.70
2022-08-23T19:04:05.212Z,20.70
2022-08-23T19:06:32.454Z,20.60
2022-08-23T19:09:00.951Z,20.60
2022-08-23T19:11:29.187Z,20.50
2022-08-23T19:13:56.282Z,20.50
2022-08-23T19:16:23.143Z,20.50
2022-08-23T19:18:50.922Z,20.50
2022-08-23T19:21:20.702Z,20.50
2022-08-23T19:23:50.128Z,20.50
2022-08-23T19:26:20.220Z,20.40
2022-08-23T19:28:47.400Z,20.40
2022-08-23T19:31:14.441Z,20.30
2022-08-23T19:33:41.779Z,20.30
2022-08-23T19:36:19.000Z,20.30
2022-08-23T19:38:57.070Z,20.20
2022-08-23T19:41:23.843Z,20.00
2022-08-23T19:43:51.311Z,20.00
2022-08-23T19:46:18.083Z,20.00
2022-08-23T19:48:46.310Z,19.70
2022-08-23T19:51:18.271Z,19.70
2022-08-23T19:54:04.687Z,19.70
2022-08-23T19:56:48.562Z,19.60
2022-08-23T19:59:24.413Z,19.50
2022-08-23T20:01:52.964Z,19.30
2022-08-23T20:04:21.492Z,19.20
2022-08-23T20:06:50.525Z,19.20
2022-08-23T20:09:18.960Z,19.20
2022-08-23T20:11:46.086Z,19.20
2022-08-23T20:14:12.820Z,19.10
2022-08-23T20:16:41.454Z,19.00
2022-08-23T20:19:09.804Z,19.10
2022-08-23T20:21:37.373Z,18.90
2022-08-23T20:24:05.423Z,18.80
2022-08-23T20:26:40.700Z,18.80
2022-08-23T20:29:10.223Z,18.70
2022-08-23T20:31:40.411Z,18.70
2022-08-23T20:34:08.894Z,18.70
2022-08-23T20:36:36.044Z,18.60
2022-08-23T20:39:03.278Z,18.60
2022-08-23T20:41:35.814Z,18.50
2022-08-23T20:44:03.237Z,18.50
2022-08-23T20:46:31.343Z,18.40
2022-08-23T20:48:58.363Z,18.50
2022-08-23T20:51:26.723Z,18.40
2022-08-23T20:53:53.596Z,18.30
2022-08-23T20:56:23.682Z,18.10
2022-08-23T20:58:50.848Z,18.10
2022-08-23T21:01:18.370Z,18.00
2022-08-23T21:03:45.532Z,17.90
2022-08-23T21:06:21.975Z,17.80
2022-08-23T21:08:54.826Z,17.80
2022-08-23T21:11:25.054Z,17.80
2022-08-23T21:13:52.167Z,17.70
2022-08-23T21:16:19.448Z,17.60
2022-08-23T21:18:46.556Z,17.50
2022-08-23T21:21:13.256Z,17.50
2022-08-23T21:23:40.137Z,17.50
2022-08-23T21:26:07.499Z,17.50
2022-08-23T21:28:36.034Z,17.60
2022-08-23T21:31:12.389Z,17.60
2022-08-23T21:33:40.456Z,17.60
2022-08-23T21:36:08.193Z,17.60
2022-08-23T21:38:35.017Z,17.50
2022-08-23T21:41:04.632Z,17.50
2022-08-23T21:43:32.469Z,17.50
2022-08-23T21:45:59.412Z,17.40
2022-08-23T21:48:26.267Z,17.30
2022-08-23T21:50:53.079Z,17.40
2022-08-23T21:53:20.232Z,17.40
2022-08-23T21:55:47.204Z,17.40
2022-08-23T21:58:14.281Z,17.40
2022-08-23T22:00:41.787Z,17.50
2022-08-23T22:03:09.626Z,17.50
2022-08-23T22:05:44.090Z,17.40
2022-08-23T22:08:14.324Z,17.40
2022-08-23T22:10:52.203Z,17.40
2022-08-23T22:13:25.851Z,17.50
2022-08-23T22:15:52.610Z,17.50
2022-08-23T22:18:19.549Z,17.50
2022-08-23T22:20:46.490Z,17.50
2022-08-23T22:23:13.146Z,17.30
2022-08-23T22:25:39.859Z,17.20
2022-08-23T22:28:06.557Z,17.10
2022-08-23T22:30:33.233Z,17.10
2022-08-23T22:32:59.926Z,17.20
2022-08-23T22:35:26.685Z,17.30
2022-08-23T22:38:14.472Z,17.30
2022-08-23T22:40:46.301Z,17.30
2022-08-23T22:43:12.998Z,17.30
2022-08-23T22:45:51.668Z,17.20
2022-08-23T22:48:18.386Z,17.20
2022-08-23T22:50:45.185Z,17.20
2022-08-23T22:53:12.167Z,17.30
2022-08-23T22:55:40.468Z,17.30
2022-08-23T22:58:07.656Z,17.30
2022-08-23T23:00:40.428Z,17.00
2022-08-23T23:03:08.112Z,16.90
2022-08-23T23:05:38.122Z,16.90
2022-08-23T23:08:23.799Z,17.00
2022-08-23T23:10:50.554Z,16.90
2022-08-23T23:13:17.318Z,16.80
2022-08-23T23:15:44.292Z,16.70
2022-08-23T23:18:10.980Z,16.60
2022-08-23T23:20:38.940Z,16.60
2022-08-23T23:23:12.632Z,16.60
2022-08-23T23:25:39.995Z,16.70
2022-08-23T23:28:07.267Z,16.80
2022-08-23T23:30:35.338Z,16.90
2022-08-23T23:33:02.369Z,16.80
2022-08-23T23:35:29.195Z,16.60
2022-08-23T23:37:57.140Z,16.50
2022-08-23T23:40:24.577Z,16.40
2022-08-23T23:42:52.091Z,16.40
2022-08-23T23:45:19.334Z,16.30
2022-08-23T23:47:46.262Z,16.20
2022-08-23T23:50:13.846Z,16.10
2022-08-23T23:52:41.011Z,16.10
2022-08-23T23:55:09.778Z,16.00
2022-08-23T23:57:36.898Z,15.80
